createdAt,value
2023-03-23T15:59:31.322Z,97955.53
2023-03-23T16:01:58.284Z,97930.72
2023-03-23T16:04:26.833Z,97952.81
2023-03-23T16:06:56.644Z,97932.41
2023-03-23T16:09:23.386Z,97929.53
2023-03-23T16:11:50.080Z,97935.34
2023-03-23T16:14:16.781Z,97964.25
2023-03-23T16:16:50.271Z,97920.72
2023-03-23T16:19:18.290Z,97928.09
2023-03-23T16:21:45.048Z,97894.41
2023-03-23T16:24:11.998Z,97962.75
2023-03-23T16:26:41.089Z,97921.78
2023-03-23T16:29:29.138Z,97961.75
2023-03-23T16:32:01.461Z,97963.84
2023-03-23T16:34:30.208Z,97925.34
2023-03-23T16:36:56.935Z,97942.03
2023-03-23T16:39:23.755Z,97894.47
2023-03-23T16:41:50.751Z,97893.41
2023-03-23T16:44:17.515Z,97944.94
2023-03-23T16:46:44.274Z,97935.31
2023-03-23T16:49:10.923Z,97908.50
2023-03-23T16:51:38.616Z,97948.53
2023-03-23T16:54:11.475Z,97920.34
2023-03-23T16:56:38.870Z,97938.66
2023-03-23T16:59:06.895Z,97902.47
2023-03-23T17:01:33.658Z,97969.41
2023-03-23T17:04:03.054Z,97895.00
2023-03-23T17:06:31.891Z,97939.94
2023-03-23T17:09:01.287Z,97966.22
2023-03-23T17:11:28.023Z,97984.81
2023-03-23T17:13:54.756Z,97951.53
2023-03-23T17:16:21.541Z,97948.50
2023-03-23T17:18:48.316Z,97959.59
2023-03-23T17:21:20.681Z,97950.06
2023-03-23T17:23:55.819Z,97932.03
2023-03-23T17:26:22.460Z,97930.84
2023-03-23T17:28:50.710Z,97945.03
2023-03-23T17:31:17.458Z,97934.81
2023-03-23T17:33:48.150Z,97938.13
2023-03-23T17:36:17.277Z,97914.00
2023-03-23T17:38:44.256Z,97936.44
2023-03-23T17:41:14.807Z,97962.69
2023-03-23T17:43:46.501Z,97974.66
2023-03-23T17:46:13.452Z,97974.31
2023-03-23T17:48:40.370Z,97951.91
2023-03-23T17:51:07.721Z,97963.88
2023-03-23T17:53:39.236Z,97970.16
2023-03-23T17:56:11.923Z,97976.28
2023-03-23T17:58:38.897Z,97922.09
2023-03-23T18:01:07.574Z,97972.75
2023-03-23T18:03:34.693Z,97995.31
2023-03-23T18:06:08.584Z,97956.84
2023-03-23T18:08:36.716Z,97989.13
2023-03-23T18:11:04.153Z,97977.16
2023-03-23T18:13:35.456Z,97980.81
2023-03-23T18:16:03.911Z,97952.44
2023-03-23T18:18:31.360Z,97983.78
2023-03-23T18:21:08.226Z,97976.56
2023-03-23T18:23:45.995Z,97979.94
2023-03-23T18:26:22.134Z,97998.94
2023-03-23T18:28:51.371Z,97995.84
2023-03-23T18:31:19.817Z,97993.94
2023-03-23T18:33:48.928Z,97988.78
2023-03-23T18:36:18.988Z,97976.41
2023-03-23T18:38:51.394Z,97967.56
2023-03-23T18:41:19.114Z,97978.84
2023-03-23T18:43:46.635Z,97954.34
2023-03-23T18:46:13.752Z,97970.47
2023-03-23T18:48:40.870Z,97918.53
2023-03-23T18:51:09.095Z,97917.22
2023-03-23T18:53:36.362Z,97891.72
2023-03-23T18:56:09.575Z,97916.19
2023-03-23T18:58:37.727Z,97960.44
2023-03-23T19:01:07.677Z,97946.97
2023-03-23T19:03:36.418Z,97902.97
2023-03-23T19:06:04.727Z,97861.44
2023-03-23T19:08:32.820Z,97975.84
2023-03-23T19:11:02.648Z,97932.56
2023-03-23T19:13:30.908Z,97932.56
2023-03-23T19:15:57.901Z,97935.50
2023-03-23T19:18:24.871Z,97931.56
2023-03-23T19:23:22.416Z,97961.72
2023-03-23T19:25:50.573Z,97971.94
2023-03-23T19:30:49.003Z,97950.25
2023-03-23T19:33:17.161Z,97922.47
2023-03-23T19:35:45.335Z,97923.31
2023-03-23T19:38:17.956Z,97941.50
2023-03-23T19:41:03.784Z,97956.47
2023-03-23T19:43:32.448Z,97937.84
2023-03-23T19:46:00.114Z,97900.25
2023-03-23T19:48:27.291Z,97911.88
2023-03-23T19:50:58.207Z,97937.63
2023-03-23T19:53:26.571Z,97946.50
2023-03-23T19:55:53.752Z,97941.88
2023-03-23T19:58:21.679Z,97933.34
2023-03-23T20:00:49.035Z,97963.38
2023-03-23T20:03:16.850Z,97937.94
2023-03-23T20:05:44.530Z,97888.59
2023-03-23T20:08:14.919Z,97905.44
2023-03-23T20:10:41.815Z,97950.66
2023-03-23T20:13:12.103Z,97933.81
2023-03-23T20:15:38.936Z,97918.16
2023-03-23T20:18:07.477Z,97833.31
2023-03-23T20:20:36.737Z,97918.28
2023-03-23T20:23:04.744Z,97900.72
2023-03-23T20:25:32.007Z,97766.53
2023-03-23T20:28:01.942Z,97879.94
2023-03-23T20:30:29.275Z,97821.19
2023-03-23T20:32:58.323Z,97871.47
2023-03-23T20:35:25.117Z,97883.13
2023-03-23T20:37:52.807Z,97900.91
2023-03-23T20:40:23.516Z,97905.41
2023-03-23T20:42:52.998Z,97798.09
2023-03-23T20:45:20.274Z,97863.38
2023-03-23T20:47:47.250Z,97880.88
2023-03-23T20:50:15.481Z,97861.97
2023-03-23T20:52:42.842Z,97811.53
2023-03-23T20:55:09.727Z,97918.13
2023-03-23T20:57:38.510Z,97863.28
2023-03-23T21:00:06.840Z,97851.97
2023-03-23T21:02:34.339Z,97864.25
2023-03-23T21:05:05.138Z,97826.28
2023-03-23T21:07:32.717Z,97846.69
2023-03-23T21:10:00.329Z,97869.25
2023-03-23T21:12:27.310Z,97867.34
2023-03-23T21:14:54.333Z,97867.00
2023-03-23T21:17:21.286Z,97903.66
2023-03-23T21:19:49.051Z,97877.69
2023-03-23T21:22:18.690Z,97883.25
2023-03-23T21:24:46.704Z,97791.28
2023-03-23T21:27:13.492Z,97785.75
2023-03-23T21:29:40.452Z,97835.69
2023-03-23T21:32:08.864Z,97841.00
2023-03-23T21:34:37.423Z,97830.81
2023-03-23T21:37:04.428Z,97861.91
2023-03-23T21:39:31.704Z,97850.88
2023-03-23T21:41:59.591Z,97869.75
2023-03-23T21:44:26.460Z,97829.03
2023-03-23T21:46:54.627Z,97803.66
2023-03-23T21:49:21.853Z,97871.03
2023-03-23T21:51:49.574Z,97815.88
2023-03-23T21:54:16.414Z,97801.75
2023-03-23T21:56:43.364Z,97824.66
2023-03-23T21:59:10.236Z,97805.41
2023-03-23T22:01:37.410Z,97853.94
2023-03-23T22:04:04.619Z,97796.31
2023-03-23T22:06:31.584Z,97819.78
2023-03-23T22:08:58.494Z,97845.88
2023-03-23T22:11:29.300Z,97852.41
2023-03-23T22:13:57.751Z,97855.81
2023-03-23T22:16:25.852Z,97841.63
2023-03-23T22:18:53.799Z,97835.19
2023-03-23T22:21:22.235Z,97844.81
2023-03-23T22:23:49.498Z,97842.09
2023-03-23T22:26:19.519Z,97818.25
2023-03-23T22:28:47.743Z,97826.06
2023-03-23T22:31:18.695Z,97845.28
2023-03-23T22:33:47.507Z,97825.94
2023-03-23T22:36:15.415Z,97841.63
2023-03-23T22:38:45.214Z,97827.34
2023-03-23T22:41:17.485Z,97796.66
2023-03-23T22:43:44.228Z,97810.78
2023-03-23T22:46:11.063Z,97794.16
2023-03-23T22:48:38.065Z,97792.38
2023-03-23T22:51:05.312Z,97743.88
2023-03-23T22:53:32.100Z,97802.19
2023-03-23T22:55:59.263Z,97761.19
2023-03-23T22:58:28.966Z,97784.56
2023-03-23T23:00:59.267Z,97792.25
2023-03-23T23:03:27.339Z,97804.22
2023-03-23T23:05:56.304Z,97814.53
2023-03-23T23:08:24.231Z,97786.19
2023-03-23T23:10:53.472Z,97762.25
2023-03-23T23:13:21.081Z,97769.84
2023-03-23T23:15:51.870Z,97789.41
2023-03-23T23:18:20.510Z,97797.69
2023-03-23T23:20:52.228Z,97768.75
2023-03-23T23:23:19.331Z,97799.47
2023-03-23T23:25:46.887Z,97790.81
2023-03-23T23:28:13.886Z,97738.63
2023-03-23T23:30:41.025Z,97790.69
2023-03-23T23:33:09.412Z,97772.19
2023-03-23T23:35:37.482Z,97775.38
2023-03-23T23:38:05.476Z,97771.38
2023-03-23T23:40:35.580Z,97745.66
2023-03-23T23:43:03.586Z,97703.47
2023-03-23T23:45:30.517Z,97740.19
2023-03-23T23:47:57.853Z,97779.66
2023-03-23T23:50:25.717Z,97776.34
2023-03-23T23:52:53.004Z,97773.28
2023-03-23T23:55:20.940Z,97786.31
2023-03-23T23:57:48.926Z,97782.38
